Time;durP1;ratioP1;P1;durP2;ratioP2;P2;SDS_P1;SDS_P2;PMS_P1;PMS_P2;Temp;Humidity;BMP_temperature;BMP_pressure;BME280_temperature;BME280_humidity;BME280_pressure;Samples;Min_cycle;Max_cycle;Signal;HPM_P1;HPM_P2
2023/03/01 00:01:29;;;;;;;4.00;2.67;;;;;;;;;;5033392;28;20038;-65
2023/03/01 00:03:56;;;;;;;4.00;2.45;;;;;;;;;;5033080;28;20124;-65
2023/03/01 00:06:22;;;;;;;4.93;2.55;;;;;;;;;;5033392;28;20076;-66
2023/03/01 00:08:48;;;;;;;4.78;3.10;;;;;;;;;;5032655;28;20026;-65
2023/03/01 00:11:16;;;;;;;4.72;3.05;;;;;;;;;;5033234;28;20036;-65
2023/03/01 00:13:43;;;;;;;5.05;3.00;;;;;;;;;;5032919;28;20029;-65
2023/03/01 00:16:20;;;;;;;5.25;2.72;;;;;;;;;;5033048;28;20029;-65
2023/03/01 00:18:46;;;;;;;4.68;2.97;;;;;;;;;;5032876;28;20084;-65
2023/03/01 00:21:12;;;;;;;5.45;3.10;;;;;;;;;;5032906;28;20041;-65
2023/03/01 00:23:38;;;;;;;4.32;2.58;;;;;;;;;;5033274;28;20031;-65
2023/03/01 00:26:09;;;;;;;4.50;2.80;;;;;;;;;;5033271;28;20104;-65
2023/03/01 00:28:35;;;;;;;5.05;2.88;;;;;;;;;;5033215;28;20017;-63
2023/03/01 00:31:09;;;;;;;6.03;2.90;;;;;;;;;;5032628;28;20036;-63
2023/03/01 00:33:35;;;;;;;4.10;2.80;;;;;;;;;;5033267;28;20069;-65
2023/03/01 00:36:01;;;;;;;4.70;2.70;;;;;;;;;;5032491;28;20037;-63
2023/03/01 00:38:27;;;;;;;6.55;3.15;;;;;;;;;;5032739;28;20030;-64
2023/03/01 00:40:53;;;;;;;5.82;2.95;;;;;;;;;;5032398;28;20103;-65
2023/03/01 00:43:19;;;;;;;6.00;3.15;;;;;;;;;;5032661;28;20040;-65
2023/03/01 00:45:45;;;;;;;6.05;3.08;;;;;;;;;;5032530;28;20132;-65
2023/03/01 00:48:11;;;;;;;4.78;2.85;;;;;;;;;;5032405;28;20132;-63
2023/03/01 00:50:37;;;;;;;4.28;3.08;;;;;;;;;;5032739;28;20030;-65
2023/03/01 00:53:04;;;;;;;5.30;2.95;;;;;;;;;;5032122;28;20037;-65
2023/03/01 00:55:30;;;;;;;3.75;2.72;;;;;;;;;;5032315;28;20037;-66
2023/03/01 00:57:56;;;;;;;3.92;2.35;;;;;;;;;;5032076;28;20037;-65
2023/03/01 01:00:22;;;;;;;5.18;3.10;;;;;;;;;;5032256;28;20029;-65
2023/03/01 01:02:48;;;;;;;5.20;3.17;;;;;;;;;;5032057;28;20084;-65
2023/03/01 01:05:20;;;;;;;4.57;2.75;;;;;;;;;;5032217;28;20063;-65
2023/03/01 01:07:46;;;;;;;5.18;2.95;;;;;;;;;;5031932;28;20029;-65
2023/03/01 01:10:16;;;;;;;5.05;3.33;;;;;;;;;;5032108;28;20038;-65
2023/03/01 01:12:42;;;;;;;6.07;2.95;;;;;;;;;;5031671;28;20087;-65
2023/03/01 01:15:12;;;;;;;3.80;2.70;;;;;;;;;;5031043;28;20566;-65
2023/03/01 01:17:38;;;;;;;6.05;2.72;;;;;;;;;;5032250;28;20382;-65
2023/03/01 01:20:04;;;;;;;6.00;3.20;;;;;;;;;;5031890;28;20036;-65
2023/03/01 01:22:30;;;;;;;4.28;3.10;;;;;;;;;;5031905;28;20509;-65
2023/03/01 01:24:56;;;;;;;5.22;3.13;;;;;;;;;;5031582;28;20021;-65
2023/03/01 01:27:22;;;;;;;3.75;2.72;;;;;;;;;;5031672;28;20029;-65
2023/03/01 01:29:48;;;;;;;3.78;2.53;;;;;;;;;;5031472;28;20026;-64
2023/03/01 01:32:14;;;;;;;4.20;2.88;;;;;;;;;;5031778;28;20032;-65
2023/03/01 01:34:40;;;;;;;4.32;2.90;;;;;;;;;;5031562;28;20136;-65
2023/03/01 01:37:07;;;;;;;4.78;3.10;;;;;;;;;;5031989;28;20052;-65
2023/03/01 01:39:33;;;;;;;4.70;2.80;;;;;;;;;;5031499;28;20041;-65
2023/03/01 01:42:00;;;;;;;5.40;3.08;;;;;;;;;;5031165;28;20397;-64
2023/03/01 01:44:27;;;;;;;4.03;2.75;;;;;;;;;;5031658;28;20081;-65
2023/03/01 01:46:56;;;;;;;3.58;2.70;;;;;;;;;;5031333;28;20025;-65
2023/03/01 01:49:23;;;;;;;4.32;2.65;;;;;;;;;;5031433;28;20021;-66
2023/03/01 01:51:51;;;;;;;4.03;2.60;;;;;;;;;;5031167;28;20486;-65
2023/03/01 01:54:37;;;;;;;6.25;3.05;;;;;;;;;;5031265;28;20033;-66
2023/03/01 01:57:07;;;;;;;5.45;3.10;;;;;;;;;;5027279;28;20112;-65
2023/03/01 01:59:34;;;;;;;4.30;2.88;;;;;;;;;;5030824;28;20482;-65
2023/03/01 02:02:01;;;;;;;4.85;3.10;;;;;;;;;;5030991;28;20120;-65
2023/03/01 02:04:27;;;;;;;3.63;2.60;;;;;;;;;;5031211;28;20022;-65
2023/03/01 02:07:03;;;;;;;5.50;2.80;;;;;;;;;;5030772;28;20058;-65
2023/03/01 02:09:31;;;;;;;3.42;2.30;;;;;;;;;;5031206;28;20034;-65
2023/03/01 02:11:57;;;;;;;4.85;3.10;;;;;;;;;;5030984;28;20032;-65
2023/03/01 02:14:23;;;;;;;4.35;2.47;;;;;;;;;;5031060;28;20102;-65
2023/03/01 02:16:50;;;;;;;4.93;2.83;;;;;;;;;;5030843;28;20025;-65
2023/03/01 02:19:42;;;;;;;4.93;3.28;;;;;;;;;;5030957;28;20094;-65
2023/03/01 02:22:29;;;;;;;4.10;2.80;;;;;;;;;;5022940;28;20076;-65
2023/03/01 02:25:02;;;;;;;4.80;3.22;;;;;;;;;;5030721;28;20025;-65
2023/03/01 02:27:33;;;;;;;4.18;2.45;;;;;;;;;;5030777;28;20021;-65
2023/03/01 02:29:59;;;;;;;4.50;2.85;;;;;;;;;;5030757;28;20548;-65
2023/03/01 02:32:26;;;;;;;5.55;3.03;;;;;;;;;;5030969;28;20025;-65
2023/03/01 02:34:53;;;;;;;4.82;2.53;;;;;;;;;;5030724;28;20029;-65
2023/03/01 02:37:24;;;;;;;3.58;2.33;;;;;;;;;;5030851;28;20017;-65
2023/03/01 02:39:53;;;;;;;4.15;2.67;;;;;;;;;;5030516;28;20033;-65
2023/03/01 02:42:23;;;;;;;4.40;2.60;;;;;;;;;;5030708;28;20033;-65
2023/03/01 02:44:49;;;;;;;3.95;2.35;;;;;;;;;;5030560;28;20025;-64
2023/03/01 02:47:15;;;;;;;3.80;2.53;;;;;;;;;;5030811;28;20025;-65
2023/03/01 02:49:41;;;;;;;3.88;2.38;;;;;;;;;;5030580;28;20029;-65
2023/03/01 02:52:23;;;;;;;4.07;2.78;;;;;;;;;;5030875;28;20100;-65
2023/03/01 02:54:48;;;;;;;3.38;2.53;;;;;;;;;;5030477;28;20091;-65
2023/03/01 02:57:15;;;;;;;3.08;2.17;;;;;;;;;;5030741;28;20022;-65
2023/03/01 02:59:42;;;;;;;4.07;2.63;;;;;;;;;;5030464;28;20336;-65
2023/03/01 03:02:37;;;;;;;4.40;2.35;;;;;;;;;;5030891;28;20045;-64
2023/03/01 03:05:08;;;;;;;3.08;2.30;;;;;;;;;;5030164;28;20025;-65
2023/03/01 03:07:36;;;;;;;3.28;2.08;;;;;;;;;;5030868;28;20076;-65
2023/03/01 03:10:03;;;;;;;3.55;2.58;;;;;;;;;;5030194;28;20120;-64
2023/03/01 03:12:29;;;;;;;3.20;2.38;;;;;;;;;;5032977;28;20029;-65
2023/03/01 03:14:55;;;;;;;3.80;2.13;;;;;;;;;;5034118;28;20022;-65
2023/03/01 03:17:21;;;;;;;3.50;2.20;;;;;;;;;;5034275;28;20041;-65
2023/03/01 03:19:47;;;;;;;2.90;1.92;;;;;;;;;;5034464;28;20068;-65
2023/03/01 03:22:13;;;;;;;3.72;2.25;;;;;;;;;;5034122;28;20041;-65
2023/03/01 03:24:39;;;;;;;4.50;2.53;;;;;;;;;;5034150;28;20021;-65
2023/03/01 03:27:06;;;;;;;4.68;2.30;;;;;;;;;;5034402;28;20052;-65
2023/03/01 03:29:32;;;;;;;2.80;1.80;;;;;;;;;;5034088;28;20486;-66
2023/03/01 03:31:58;;;;;;;5.25;2.40;;;;;;;;;;5033830;28;20030;-65
2023/03/01 03:34:24;;;;;;;3.85;2.50;;;;;;;;;;5033946;28;20551;-65
2023/03/01 03:37:02;;;;;;;4.07;1.95;;;;;;;;;;5033687;28;20018;-65
2023/03/01 03:39:28;;;;;;;2.65;1.90;;;;;;;;;;5033778;28;20064;-65
2023/03/01 03:41:55;;;;;;;4.07;2.20;;;;;;;;;;5033547;28;20034;-65
2023/03/01 03:44:21;;;;;;;2.88;1.95;;;;;;;;;;5033803;28;20098;-65
2023/03/01 03:46:47;;;;;;;4.40;2.13;;;;;;;;;;5033414;28;20049;-65
2023/03/01 03:49:13;;;;;;;3.83;2.55;;;;;;;;;;5033792;28;20022;-64
2023/03/01 03:51:39;;;;;;;3.78;2.08;;;;;;;;;;5033479;28;20462;-65
2023/03/01 03:54:05;;;;;;;3.33;2.10;;;;;;;;;;5034235;28;20451;-65
2023/03/01 03:56:31;;;;;;;3.70;2.05;;;;;;;;;;5033619;28;20049;-64
2023/03/01 03:58:57;;;;;;;3.30;2.13;;;;;;;;;;5033206;28;20025;-65
2023/03/01 04:01:23;;;;;;;3.53;2.08;;;;;;;;;;5033235;28;20030;-65
2023/03/01 04:03:54;;;;;;;2.80;1.85;;;;;;;;;;5033134;28;20026;-64
2023/03/01 04:06:20;;;;;;;3.22;1.90;;;;;;;;;;5033314;28;20037;-64
2023/03/01 04:08:46;;;;;;;2.90;2.05;;;;;;;;;;5032914;28;20109;-65
2023/03/01 04:11:28;;;;;;;4.22;2.30;;;;;;;;;;5033386;28;20056;-65
2023/03/01 04:13:56;;;;;;;2.65;1.58;;;;;;;;;;5032797;28;20046;-65
2023/03/01 04:16:23;;;;;;;2.92;1.92;;;;;;;;;;5033320;28;20447;-64
2023/03/01 04:18:49;;;;;;;3.25;1.85;;;;;;;;;;5032804;28;20032;-65
2023/03/01 04:21:15;;;;;;;4.82;2.47;;;;;;;;;;5033050;28;20104;-64
2023/03/01 04:23:41;;;;;;;2.72;1.83;;;;;;;;;;5032281;28;20457;-65
2023/03/01 04:26:08;;;;;;;4.50;2.00;;;;;;;;;;5033341;28;20103;-65
2023/03/01 04:28:36;;;;;;;2.75;1.63;;;;;;;;;;5033042;28;20025;-64
2023/03/01 04:31:20;;;;;;;3.08;1.85;;;;;;;;;;5032709;28;20057;-64
2023/03/01 04:33:48;;;;;;;3.63;1.75;;;;;;;;;;5032353;28;20060;-64
2023/03/01 04:36:15;;;;;;;3.75;2.05;;;;;;;;;;5032775;28;20053;-65
2023/03/01 04:38:41;;;;;;;4.03;2.47;;;;;;;;;;5032455;28;20029;-64
2023/03/01 04:41:08;;;;;;;3.15;1.95;;;;;;;;;;5033222;28;20037;-65
2023/03/01 04:43:35;;;;;;;3.28;2.10;;;;;;;;;;5032976;28;20037;-64
2023/03/01 04:46:05;;;;;;;2.97;1.83;;;;;;;;;;5032444;28;20421;-64
2023/03/01 04:48:31;;;;;;;2.85;1.92;;;;;;;;;;5032549;28;20030;-64
2023/03/01 04:50:59;;;;;;;2.55;1.70;;;;;;;;;;5032248;28;20056;-64
2023/03/01 04:53:25;;;;;;;3.50;2.38;;;;;;;;;;5032416;28;20025;-64
2023/03/01 04:55:51;;;;;;;2.53;1.83;;;;;;;;;;5032118;28;20033;-63
2023/03/01 04:58:17;;;;;;;2.63;2.05;;;;;;;;;;5032377;28;20025;-66
2023/03/01 05:00:43;;;;;;;3.65;2.00;;;;;;;;;;5032042;28;20032;-65
2023/03/01 05:03:09;;;;;;;2.65;1.80;;;;;;;;;;5032481;28;20037;-65
2023/03/01 05:05:36;;;;;;;2.75;2.05;;;;;;;;;;5032573;28;20064;-65
2023/03/01 05:08:04;;;;;;;2.15;1.50;;;;;;;;;;5031923;28;20061;-66
2023/03/01 05:10:31;;;;;;;2.95;1.63;;;;;;;;;;5030507;28;20033;-66
2023/03/01 05:12:57;;;;;;;2.67;1.80;;;;;;;;;;5031886;28;20108;-65
2023/03/01 05:15:27;;;;;;;5.43;1.83;;;;;;;;;;5032022;28;20029;-65
2023/03/01 05:17:54;;;;;;;2.83;1.92;;;;;;;;;;5031712;28;20017;-66
2023/03/01 05:20:23;;;;;;;2.08;1.30;;;;;;;;;;5031732;28;20473;-65
2023/03/01 05:22:50;;;;;;;3.53;1.70;;;;;;;;;;5031703;28;20428;-65
2023/03/01 05:25:16;;;;;;;3.72;2.00;;;;;;;;;;5031937;28;20033;-65
2023/03/01 05:27:43;;;;;;;2.75;1.80;;;;;;;;;;5031601;28;20022;-65
2023/03/01 05:30:15;;;;;;;3.05;1.92;;;;;;;;;;5032118;28;20018;-64
2023/03/01 05:32:46;;;;;;;3.35;1.77;;;;;;;;;;5031464;28;20033;-65
2023/03/01 05:35:13;;;;;;;3.63;1.65;;;;;;;;;;5030849;28;20021;-65
2023/03/01 05:37:41;;;;;;;3.15;1.60;;;;;;;;;;5031755;28;20112;-65
2023/03/01 05:40:15;;;;;;;3.20;1.50;;;;;;;;;;5031667;28;20502;-65
2023/03/01 05:42:41;;;;;;;2.22;1.70;;;;;;;;;;5031276;28;20067;-65
2023/03/01 05:45:09;;;;;;;5.13;1.88;;;;;;;;;;5031876;28;20103;-65
2023/03/01 05:47:35;;;;;;;4.25;2.03;;;;;;;;;;5031630;28;20490;-64
2023/03/01 05:50:01;;;;;;;3.35;1.85;;;;;;;;;;5031169;28;20496;-65
2023/03/01 05:52:27;;;;;;;2.90;1.63;;;;;;;;;;5031447;28;20021;-65
2023/03/01 05:54:53;;;;;;;2.53;1.55;;;;;;;;;;5031214;28;20104;-65
2023/03/01 05:57:20;;;;;;;4.90;2.00;;;;;;;;;;5031377;28;20025;-66
2023/03/01 05:59:46;;;;;;;2.35;1.58;;;;;;;;;;5031134;28;20026;-65
2023/03/01 06:02:12;;;;;;;3.20;1.77;;;;;;;;;;5031239;28;20083;-65
2023/03/01 06:04:38;;;;;;;2.40;1.65;;;;;;;;;;5031530;28;20057;-65
2023/03/01 06:07:04;;;;;;;3.38;2.20;;;;;;;;;;5031131;28;20504;-65
2023/03/01 06:09:30;;;;;;;4.18;2.33;;;;;;;;;;5031200;28;20037;-65
2023/03/01 06:11:56;;;;;;;3.90;2.17;;;;;;;;;;5030991;28;20072;-64
2023/03/01 06:14:21;;;;;;;3.55;2.00;;;;;;;;;;5031394;28;20367;-65
2023/03/01 06:16:47;;;;;;;2.72;1.90;;;;;;;;;;5031026;28;20033;-65
2023/03/01 06:19:13;;;;;;;3.50;1.85;;;;;;;;;;5031404;28;20033;-66
2023/03/01 06:21:39;;;;;;;4.40;2.00;;;;;;;;;;5031003;28;20478;-65
2023/03/01 06:24:07;;;;;;;3.67;2.15;;;;;;;;;;5031523;28;20033;-65
2023/03/01 06:26:33;;;;;;;3.50;2.00;;;;;;;;;;5031098;28;20474;-65
2023/03/01 06:28:59;;;;;;;4.07;2.45;;;;;;;;;;5030905;28;20388;-65
2023/03/01 06:31:25;;;;;;;3.38;1.95;;;;;;;;;;5031057;28;20447;-65
2023/03/01 06:33:51;;;;;;;3.53;1.67;;;;;;;;;;5030805;28;20025;-65
2023/03/01 06:36:18;;;;;;;2.95;2.00;;;;;;;;;;5031098;28;20101;-65
2023/03/01 06:38:44;;;;;;;2.47;1.80;;;;;;;;;;5030814;28;20442;-65
2023/03/01 06:41:10;;;;;;;3.10;1.95;;;;;;;;;;5031048;28;20025;-65
2023/03/01 06:43:36;;;;;;;2.15;1.50;;;;;;;;;;5031364;28;20029;-65
2023/03/01 06:46:09;;;;;;;2.72;1.67;;;;;;;;;;5032181;28;20025;-64
2023/03/01 06:48:35;;;;;;;3.15;1.92;;;;;;;;;;5035573;28;20064;-65
2023/03/01 06:51:01;;;;;;;3.33;2.08;;;;;;;;;;5034668;28;20025;-65
2023/03/01 06:53:28;;;;;;;3.03;1.98;;;;;;;;;;5034844;28;20030;-64
2023/03/01 06:55:58;;;;;;;3.33;2.10;;;;;;;;;;5034640;28;20025;-64
2023/03/01 06:58:25;;;;;;;2.97;1.88;;;;;;;;;;5034602;28;20502;-64
2023/03/01 07:00:51;;;;;;;3.22;1.85;;;;;;;;;;5034414;28;20497;-64
2023/03/01 07:03:17;;;;;;;3.38;2.08;;;;;;;;;;5034699;28;20026;-64
2023/03/01 07:05:44;;;;;;;4.22;2.00;;;;;;;;;;5034322;28;20025;-64
2023/03/01 07:08:10;;;;;;;6.07;2.42;;;;;;;;;;5034557;28;20053;-64
2023/03/01 07:10:36;;;;;;;4.25;1.80;;;;;;;;;;5035520;28;20938;-64
2023/03/01 07:13:02;;;;;;;3.53;2.30;;;;;;;;;;5034072;28;20039;-64
2023/03/01 07:15:29;;;;;;;4.38;2.47;;;;;;;;;;5034535;28;20061;-64
2023/03/01 07:17:55;;;;;;;4.45;2.42;;;;;;;;;;5034017;28;20022;-65
2023/03/01 07:20:25;;;;;;;3.28;1.95;;;;;;;;;;5034306;28;20030;-64
2023/03/01 07:22:51;;;;;;;3.40;1.83;;;;;;;;;;5034012;28;20040;-64
2023/03/01 07:25:17;;;;;;;4.07;2.40;;;;;;;;;;5034238;28;20417;-64
2023/03/01 07:27:43;;;;;;;4.07;2.28;;;;;;;;;;5034079;28;20503;-64
2023/03/01 07:30:11;;;;;;;4.80;2.33;;;;;;;;;;5034295;28;20100;-64
2023/03/01 07:32:37;;;;;;;4.03;2.20;;;;;;;;;;5034466;28;20037;-64
2023/03/01 07:35:03;;;;;;;5.13;2.83;;;;;;;;;;5033868;28;20456;-63
2023/03/01 07:37:29;;;;;;;4.13;2.35;;;;;;;;;;5033919;28;20109;-63
2023/03/01 07:39:55;;;;;;;4.47;2.25;;;;;;;;;;5033667;28;20112;-64
2023/03/01 07:42:21;;;;;;;4.28;1.92;;;;;;;;;;5033918;28;20034;-64
2023/03/01 07:44:47;;;;;;;3.15;1.92;;;;;;;;;;5033638;28;20038;-67
2023/03/01 07:47:13;;;;;;;3.75;2.08;;;;;;;;;;5033993;28;20101;-68
2023/03/01 07:49:39;;;;;;;5.20;2.45;;;;;;;;;;5034187;28;20411;-68
2023/03/01 07:52:05;;;;;;;3.72;2.08;;;;;;;;;;5031922;28;20021;-68
2023/03/01 07:54:31;;;;;;;8.02;2.38;;;;;;;;;;5031871;28;20565;-66
2023/03/01 07:56:57;;;;;;;3.65;2.30;;;;;;;;;;5030906;28;20025;-65
2023/03/01 07:59:28;;;;;;;4.55;2.00;;;;;;;;;;5032667;28;20437;-65
2023/03/01 08:01:54;;;;;;;5.07;2.30;;;;;;;;;;5032037;28;20042;-65
2023/03/01 08:04:20;;;;;;;3.97;2.25;;;;;;;;;;5032393;28;20021;-66
2023/03/01 08:06:46;;;;;;;6.60;2.42;;;;;;;;;;5032903;28;20052;-66
2023/03/01 08:09:12;;;;;;;4.15;2.33;;;;;;;;;;5033295;28;20448;-65
2023/03/01 08:11:38;;;;;;;5.38;2.38;;;;;;;;;;5033766;28;20100;-66
2023/03/01 08:14:04;;;;;;;3.83;2.15;;;;;;;;;;5033318;28;20026;-66
2023/03/01 08:16:30;;;;;;;3.97;2.05;;;;;;;;;;5033331;28;20470;-67
2023/03/01 08:18:59;;;;;;;6.20;2.03;;;;;;;;;;5033076;28;20033;-68
2023/03/01 08:21:25;;;;;;;3.40;2.30;;;;;;;;;;5033224;28;20129;-66
2023/03/01 08:23:51;;;;;;;6.40;2.17;;;;;;;;;;5032735;28;20033;-66
2023/03/01 08:26:18;;;;;;;3.83;2.17;;;;;;;;;;5033126;28;20501;-67
2023/03/01 08:28:44;;;;;;;3.65;1.98;;;;;;;;;;5032605;28;20037;-63
2023/03/01 08:31:31;;;;;;;5.38;2.40;;;;;;;;;;5032768;28;20030;-63
2023/03/01 08:33:58;;;;;;;4.43;2.00;;;;;;;;;;5032715;28;20120;-64
2023/03/01 08:36:25;;;;;;;5.22;2.10;;;;;;;;;;5032899;28;20080;-64
2023/03/01 08:38:51;;;;;;;3.55;2.05;;;;;;;;;;5032711;28;20026;-63
2023/03/01 08:41:17;;;;;;;3.35;1.70;;;;;;;;;;5032744;28;20040;-63
2023/03/01 08:43:43;;;;;;;4.15;1.77;;;;;;;;;;5032456;28;20505;-63
2023/03/01 08:46:10;;;;;;;4.57;2.10;;;;;;;;;;5032863;28;20061;-64
2023/03/01 08:48:36;;;;;;;6.00;1.92;;;;;;;;;;5033103;28;20022;-63
2023/03/01 08:51:12;;;;;;;3.47;1.85;;;;;;;;;;5032447;28;20029;-63
2023/03/01 08:53:38;;;;;;;3.47;2.17;;;;;;;;;;5033094;28;20083;-64
2023/03/01 08:56:04;;;;;;;2.97;1.80;;;;;;;;;;5031605;28;20060;-64
2023/03/01 08:58:30;;;;;;;6.20;1.90;;;;;;;;;;5032480;28;20100;-64
2023/03/01 09:00:57;;;;;;;5.15;2.20;;;;;;;;;;5032216;28;20117;-63
2023/03/01 09:03:23;;;;;;;7.75;1.70;;;;;;;;;;5032402;28;20029;-64
2023/03/01 09:05:50;;;;;;;4.90;1.95;;;;;;;;;;5032188;28;20025;-65
2023/03/01 09:08:16;;;;;;;5.20;2.28;;;;;;;;;;5030948;28;20025;-65
2023/03/01 09:10:42;;;;;;;7.85;1.90;;;;;;;;;;5032201;28;20508;-66
2023/03/01 09:13:08;;;;;;;3.72;1.95;;;;;;;;;;5032672;28;20559;-65
2023/03/01 09:15:36;;;;;;;9.07;2.08;;;;;;;;;;5032602;28;20029;-65
2023/03/01 09:18:02;;;;;;;4.10;1.63;;;;;;;;;;5031573;28;20036;-65
2023/03/01 09:20:28;;;;;;;4.00;1.92;;;;;;;;;;5032098;28;20022;-65
2023/03/01 09:22:54;;;;;;;6.22;2.00;;;;;;;;;;5031927;28;20033;-66
2023/03/01 09:25:20;;;;;;;3.08;1.80;;;;;;;;;;5031991;28;20080;-66
2023/03/01 09:27:46;;;;;;;3.40;1.60;;;;;;;;;;5031309;28;20120;-66
2023/03/01 09:30:12;;;;;;;3.78;1.67;;;;;;;;;;5031975;28;20433;-65
2023/03/01 09:32:42;;;;;;;3.92;1.92;;;;;;;;;;5032009;28;20071;-65
2023/03/01 09:35:08;;;;;;;6.47;2.03;;;;;;;;;;5032128;28;20040;-65
2023/03/01 09:37:35;;;;;;;4.43;1.95;;;;;;;;;;5031946;28;20029;-65
2023/03/01 09:40:01;;;;;;;4.28;2.00;;;;;;;;;;5031645;28;20026;-65
2023/03/01 09:42:28;;;;;;;3.55;1.52;;;;;;;;;;5031445;28;20103;-65
2023/03/01 09:44:54;;;;;;;5.63;2.05;;;;;;;;;;5029539;28;20390;-66
2023/03/01 09:47:26;;;;;;;3.25;1.95;;;;;;;;;;5031246;28;20470;-66
2023/03/01 09:49:58;;;;;;;3.60;1.70;;;;;;;;;;5031310;28;20051;-65
2023/03/01 09:52:33;;;;;;;3.05;1.48;;;;;;;;;;5031676;28;20044;-65
2023/03/01 09:54:59;;;;;;;6.15;1.83;;;;;;;;;;5031498;28;20311;-65
2023/03/01 09:57:39;;;;;;;3.55;1.70;;;;;;;;;;5031336;28;20108;-66
2023/03/01 10:00:31;;;;;;;4.10;2.10;;;;;;;;;;5031817;28;20048;-66
2023/03/01 10:03:12;;;;;;;3.42;1.40;;;;;;;;;;5029882;28;20121;-64
2023/03/01 10:05:47;;;;;;;2.50;1.58;;;;;;;;;;5031441;28;20394;-65
2023/03/01 10:08:35;;;;;;;5.43;1.77;;;;;;;;;;5031028;28;20021;-64
2023/03/01 10:11:01;;;;;;;3.85;1.70;;;;;;;;;;5031041;28;20449;-63
2023/03/01 10:13:48;;;;;;;6.45;2.45;;;;;;;;;;5031320;28;20148;-64
2023/03/01 10:16:21;;;;;;;4.40;1.65;;;;;;;;;;5030933;28;20029;-63
2023/03/01 10:18:50;;;;;;;4.18;1.63;;;;;;;;;;5030864;28;20022;-64
2023/03/01 10:21:20;;;;;;;3.05;1.90;;;;;;;;;;5030482;28;20041;-62
2023/03/01 10:23:47;;;;;;;6.05;2.05;;;;;;;;;;5030612;28;20037;-62
2023/03/01 10:26:13;;;;;;;8.75;3.38;;;;;;;;;;5030993;28;20026;-62
2023/03/01 10:28:45;;;;;;;6.18;2.10;;;;;;;;;;5031108;28;20037;-62
2023/03/01 10:31:15;;;;;;;7.15;2.92;;;;;;;;;;5030862;28;20025;-62
2023/03/01 10:33:42;;;;;;;8.57;2.97;;;;;;;;;;5030669;28;20363;-63
2023/03/01 10:36:08;;;;;;;8.85;3.47;;;;;;;;;;5031074;28;20104;-62
2023/03/01 10:38:54;;;;;;;6.07;2.75;;;;;;;;;;5030588;28;20030;-62
2023/03/01 10:41:23;;;;;;;6.82;2.60;;;;;;;;;;5029449;28;20033;-62
2023/03/01 10:43:51;;;;;;;5.70;2.92;;;;;;;;;;5030768;28;20036;-62
2023/03/01 10:46:27;;;;;;;7.55;3.20;;;;;;;;;;5030731;28;20486;-62
2023/03/01 10:49:02;;;;;;;6.25;2.75;;;;;;;;;;5029181;28;20021;-60
2023/03/01 10:51:28;;;;;;;9.10;2.78;;;;;;;;;;5030878;28;20037;-61
2023/03/01 10:53:54;;;;;;;9.75;2.88;;;;;;;;;;5030755;28;20017;-61
2023/03/01 10:56:20;;;;;;;5.70;3.38;;;;;;;;;;5030568;28;20507;-61
2023/03/01 10:59:00;;;;;;;9.77;2.88;;;;;;;;;;5030560;28;20030;-61
2023/03/01 11:01:27;;;;;;;4.10;2.65;;;;;;;;;;5030806;28;20034;-61
2023/03/01 11:04:05;;;;;;;7.43;3.03;;;;;;;;;;5030626;28;20025;-61
2023/03/01 11:06:32;;;;;;;11.55;4.13;;;;;;;;;;5030630;28;20405;-62
2023/03/01 11:09:13;;;;;;;8.50;3.47;;;;;;;;;;5030469;28;20497;-61
2023/03/01 11:11:39;;;;;;;8.70;3.28;;;;;;;;;;5030923;28;20026;-61
2023/03/01 11:14:11;;;;;;;5.13;3.00;;;;;;;;;;5030996;28;20029;-61
2023/03/01 11:16:39;;;;;;;5.53;2.55;;;;;;;;;;5030678;28;20034;-61
2023/03/01 11:19:11;;;;;;;8.27;2.95;;;;;;;;;;5030996;28;20059;-61
2023/03/01 11:21:42;;;;;;;7.93;2.92;;;;;;;;;;5029503;28;20087;-61
2023/03/01 11:24:10;;;;;;;5.20;3.15;;;;;;;;;;5030935;28;20022;-61
2023/03/01 11:26:38;;;;;;;7.03;2.90;;;;;;;;;;5030896;28;20037;-61
2023/03/01 11:29:06;;;;;;;5.95;2.92;;;;;;;;;;5030814;28;20021;-61
2023/03/01 11:31:33;;;;;;;7.05;3.05;;;;;;;;;;5030686;28;20033;-61
2023/03/01 11:34:13;;;;;;;4.95;3.13;;;;;;;;;;5033416;28;20112;-63
2023/03/01 11:36:48;;;;;;;5.55;3.00;;;;;;;;;;5034461;28;20034;-61
2023/03/01 11:39:14;;;;;;;;;;;;;;;;;;5034451;28;20025;-61
2023/03/01 11:41:41;;;;;;;5.90;2.92;;;;;;;;;;5033612;28;20333;-62
2023/03/01 11:44:17;;;;;;;10.05;3.00;;;;;;;;;;5034412;28;20067;-61
2023/03/01 11:46:49;;;;;;;4.43;2.88;;;;;;;;;;5033905;28;20034;-62
2023/03/01 11:49:24;;;;;;;4.63;2.72;;;;;;;;;;5033911;28;20022;-61
2023/03/01 11:52:03;;;;;;;4.38;2.95;;;;;;;;;;5033725;28;20053;-65
2023/03/01 11:54:35;;;;;;;3.53;2.42;;;;;;;;;;5033880;28;20040;-61
2023/03/01 11:57:05;;;;;;;4.25;2.85;;;;;;;;;;5033561;28;20018;-61
2023/03/01 11:59:39;;;;;;;6.00;3.10;;;;;;;;;;5033663;28;20033;-61
2023/03/01 12:02:05;;;;;;;3.20;2.27;;;;;;;;;;5033834;28;20033;-62
2023/03/01 12:04:48;;;;;;;4.20;2.97;;;;;;;;;;5033449;28;20036;-61
2023/03/01 12:07:14;;;;;;;6.22;2.70;;;;;;;;;;5032089;28;20021;-61
2023/03/01 12:09:43;;;;;;;3.70;2.38;;;;;;;;;;5033005;28;20509;-61
2023/03/01 12:12:12;;;;;;;5.03;2.60;;;;;;;;;;5033761;28;20108;-62
2023/03/01 12:14:55;;;;;;;5.05;2.70;;;;;;;;;;5033644;28;20024;-60
2023/03/01 12:17:39;;;;;;;5.68;2.78;;;;;;;;;;5033195;28;20394;-62
2023/03/01 12:20:13;;;;;;;4.22;2.70;;;;;;;;;;5033514;28;20540;-62
2023/03/01 12:22:52;;;;;;;8.15;2.85;;;;;;;;;;5032681;28;20041;-62
2023/03/01 12:25:25;;;;;;;4.05;2.38;;;;;;;;;;5032884;28;20034;-62
2023/03/01 12:27:51;;;;;;;5.43;2.90;;;;;;;;;;5032801;28;20029;-62
2023/03/01 12:30:43;;;;;;;4.03;2.25;;;;;;;;;;5033084;28;20382;-62
2023/03/01 12:33:35;;;;;;;6.00;2.50;;;;;;;;;;5033146;28;20025;-62
2023/03/01 12:36:04;;;;;;;4.40;2.75;;;;;;;;;;5032415;28;20105;-62
2023/03/01 12:38:37;;;;;;;4.45;2.70;;;;;;;;;;5032816;28;20052;-62
2023/03/01 12:41:21;;;;;;;4.63;2.95;;;;;;;;;;5032282;28;20509;-59
2023/03/01 12:43:49;;;;;;;5.63;2.58;;;;;;;;;;5030881;28;20387;-59
2023/03/01 12:46:25;;;;;;;7.38;3.53;;;;;;;;;;5030933;28;20040;-58
2023/03/01 12:48:51;;;;;;;;;;;;;;;;;;5031184;28;20477;-59
2023/03/01 12:51:23;;;;;;;6.20;3.08;;;;;;;;;;5030938;28;20012;-59
2023/03/01 12:53:51;;;;;;;6.35;2.70;;;;;;;;;;5030977;28;20479;-59
2023/03/01 12:56:22;;;;;;;4.82;3.05;;;;;;;;;;5031046;28;20124;-59
2023/03/01 12:58:56;;;;;;;4.32;2.63;;;;;;;;;;5030939;28;20025;-56
2023/03/01 13:01:42;;;;;;;4.25;2.60;;;;;;;;;;5031918;28;20040;-55
2023/03/01 13:04:17;;;;;;;6.63;2.90;;;;;;;;;;5031365;28;20088;-60
2023/03/01 13:07:01;;;;;;;4.15;2.50;;;;;;;;;;5031742;28;20025;-55
2023/03/01 13:09:35;;;;;;;3.88;2.70;;;;;;;;;;5032319;28;20413;-57
2023/03/01 13:12:01;;;;;;;4.80;2.90;;;;;;;;;;5032025;28;20116;-57
2023/03/01 13:14:33;;;;;;;5.53;2.65;;;;;;;;;;5032223;28;20451;-59
2023/03/01 13:16:59;;;;;;;3.17;2.25;;;;;;;;;;5032063;28;20143;-59
2023/03/01 13:19:29;;;;;;;3.53;2.70;;;;;;;;;;5032239;28;20022;-61
2023/03/01 13:21:55;;;;;;;4.72;2.90;;;;;;;;;;5031731;28;20041;-59
2023/03/01 13:24:28;;;;;;;4.80;2.42;;;;;;;;;;5032050;28;20531;-58
2023/03/01 13:27:09;;;;;;;4.00;2.40;;;;;;;;;;5031823;28;20057;-59
2023/03/01 13:29:45;;;;;;;6.00;2.47;;;;;;;;;;5032164;28;20026;-59
2023/03/01 13:32:40;;;;;;;4.00;2.75;;;;;;;;;;5031779;28;20429;-59
2023/03/01 13:35:15;;;;;;;4.18;2.10;;;;;;;;;;5031539;28;20370;-60
2023/03/01 13:37:41;;;;;;;4.38;2.17;;;;;;;;;;5031606;28;20120;-58
2023/03/01 13:40:18;;;;;;;3.42;2.30;;;;;;;;;;5032188;28;20067;-59
2023/03/01 13:42:48;;;;;;;7.30;2.95;;;;;;;;;;5031272;28;20120;-59
2023/03/01 13:45:18;;;;;;;4.13;2.42;;;;;;;;;;5031999;28;20113;-59
2023/03/01 13:47:46;;;;;;;6.20;3.35;;;;;;;;;;5031416;28;20029;-58
2023/03/01 13:50:24;;;;;;;4.78;2.25;;;;;;;;;;5031699;28;20056;-60
2023/03/01 13:53:16;;;;;;;5.00;2.97;;;;;;;;;;5031201;28;20033;-58
2023/03/01 13:55:44;;;;;;;5.43;2.60;;;;;;;;;;5029512;28;20113;-60
2023/03/01 13:58:19;;;;;;;4.60;1.95;;;;;;;;;;5031475;28;20420;-58
2023/03/01 14:00:45;;;;;;;5.93;2.60;;;;;;;;;;5031143;28;20029;-57
2023/03/01 14:03:16;;;;;;;4.03;2.33;;;;;;;;;;5031439;28;20474;-59
2023/03/01 14:05:44;;;;;;;4.78;2.47;;;;;;;;;;5031188;28;20389;-59
2023/03/01 14:08:21;;;;;;;6.25;2.58;;;;;;;;;;5031493;28;20036;-58
2023/03/01 14:10:54;;;;;;;3.80;2.50;;;;;;;;;;5030870;28;20033;-57
2023/03/01 14:13:20;;;;;;;3.75;2.20;;;;;;;;;;5031184;28;20490;-60
2023/03/01 14:15:56;;;;;;;3.35;2.00;;;;;;;;;;5030968;28;20033;-59
2023/03/01 14:18:25;;;;;;;3.20;2.17;;;;;;;;;;5031411;28;20506;-60
2023/03/01 14:20:51;;;;;;;5.85;2.75;;;;;;;;;;5030944;28;20116;-57
2023/03/01 14:23:22;;;;;;;3.15;2.22;;;;;;;;;;5031265;28;20026;-59
2023/03/01 14:25:55;;;;;;;4.97;2.38;;;;;;;;;;5029640;28;20029;-57
2023/03/01 14:28:29;;;;;;;2.80;2.17;;;;;;;;;;5031041;28;20482;-55
2023/03/01 14:30:56;;;;;;;4.38;2.63;;;;;;;;;;5030961;28;20539;-57
2023/03/01 14:33:22;;;;;;;2.78;1.92;;;;;;;;;;5031009;28;20397;-54
2023/03/01 14:35:54;;;;;;;4.03;2.20;;;;;;;;;;5030731;28;20022;-55
2023/03/01 14:38:24;;;;;;;4.90;2.90;;;;;;;;;;5030935;28;20022;-56
2023/03/01 14:40:53;;;;;;;4.20;2.28;;;;;;;;;;5030630;28;20033;-60
2023/03/01 14:43:22;;;;;;;4.85;2.20;;;;;;;;;;5031049;28;20031;-56
2023/03/01 14:45:50;;;;;;;3.47;2.35;;;;;;;;;;5030686;28;20045;-57
2023/03/01 14:48:16;;;;;;;3.75;2.28;;;;;;;;;;5031039;28;20029;-58
2023/03/01 14:50:42;;;;;;;3.13;1.98;;;;;;;;;;5030768;28;20021;-59
2023/03/01 14:53:15;;;;;;;4.55;2.60;;;;;;;;;;5031174;28;20029;-58
2023/03/01 14:55:42;;;;;;;3.58;2.45;;;;;;;;;;5030817;28;20025;-58